Relevés horaires Bierset (Belgique)


Relevés horaires à Bierset - Samedi 11 Juill. 2020
Heure UTC1 Température [°C] Vent [km/h] Hum. [%] Pres.4 [hPa] Visi. [Km] Nébu. [octa] Préc.5 [mm] Cond.
2m. Res. Ros. Dir.2 Vit. Moy. Raf.3
23:00 12.7 12.7 10.0 NNO 1.9 3.7 3.7 84 1027.6(0.9/3h) 30 3/8 -- --
22:00 13.4 13.4 9.7 N 1.9 1.9 3.7 78 1027.3(0.8/3h) 30 3/8 -- --
21:00 14.0 14.0 9.5 N 1.9 9.3 13.0 74 1027.1(0.9/3h) 30 1/8 -- --
20:00 14.9 14.9 10.0 N 3.7 5.6 9.3 72 1026.6(0.8/3h) 30 4/8 -- --
19:00 16.0 16.0 9.5 NE 5.6 9.3 13.0 65 1026.3(0.7/3h) 30 5/8 -- --
18:00 16.9 16.9 9.8 NNE 7.4 11.1 16.7 63 1026(0.7/3h) 30 5/8 0/12h
--
17:00 17.6 17.6 9.4 N 5.6 11.1 14.8 59 1025.5(0.5/3h) 30 4/8 -- --
16:00 18.2 18.2 9.5 N 11.1 11.1 16.7 57 1025.4(0.2/3h) 30 3/8 -- --
15:00 18.3 18.3 8.6 ONO 5.6 7.4 11.1 53 1025.2(0.0/3h) 30 4/8 -- --
14:00 18.2 18.2 8.0 ONO 3.7 5.6 9.3 51 1025(0.1/3h) 30 4/8 -- --
13:00 18.4 18.4 7.9 O 5.6 5.6 11.1 50 1025.2(-0.1/3h) 30 5/8 -- --
12:00 18.1 18.1 8.2 O 5.6 5.6 9.3 52 1025.2(0.3/3h) 30 5/8 0/6h
--
11:00 18.4 18.4 8.6 NNO 3.7 5.6 9.3 53 1025(0.5/3h) 30 4/8 -- --
10:00 16.5 16.5 8.4 NNO 1.9 5.6 9.3 59 1025.2(0.9/3h) 30 4/8 -- --
09:00 14.8 14.8 8.2 NO 5.6 5.6 9.3 65 1025.1(1.2/3h) 30 3/8 -- --
08:00 14.5 14.5 8.2 OSO 3.7 3.7 7.4 66 1024.8(1.4/3h) 30 3/8 -- --
07:00 13.1 13.1 8.6 OSO 1.9 3.7 3.7 74 1024.5(1.4/3h) 30 1/8 -- --
06:00 12.2 12.2 9.7 O 1.9 3.7 5.6 85 1024.1(1.4/3h) 30 2/8 0/12h
--
05:00 10.1 10.1 8.7 OSO 3.7 3.7 3.7 91 1023.7(1.1/3h) 40 2/8 -- --
04:00 9.7 9.7 8.2 OSO 1.9 1.9 3.7 90 1023.3(0.8/3h) 40 3/8 -- --
03:00 9.8 9.8 8.0 O 1.9 3.7 5.6 89 1022.9(0.5/3h) 40 2/8 -- --
02:00 10.2 10.2 8.0 ONO 3.7 3.7 5.6 86 1022.6(0.9/3h) 40 1/8 -- --
01:00 10.0 10.0 8.2 ONO 3.7 3.7 3.7 89 1022.5(1.2/3h) 40 1/8 -- --
00:00 11.0 11.0 8.4 ONO 3.7 7.4 13.0 84 1022.2(1.9/3h) 40 1/8 0/6h
1/24h
--

1 Coordinated Universal Time. Actuellement il est 08:00 locale et 06:00 UTC.

2 Le vent souffle depuis la direction indiquée vers la direction oposée.

3 Les rafales max. sont disponible 40 min après l'heure du relevé.

4 Pour les stations d'altitude (plus de 600m) le géopotentiel du niveau le plus proche de la pression obligatoire est indiqué.

5 Les stations disposant d'un diffuseur peuvent indiquer "trace". Cela signifie que des précipitations ont touchés le sol mais que la quantité est inférieure à 0.1 mm.

Récapitulatif de la journée
Température [°C] Vent [km/h] Ensoleillement4 [h] Precipitations totale5 [mm] Pression [Hpa]
Min1 Max.2 Moy.3 Max. Min Max.
9.0 20.2 5.8 16.7 0 h 0 min 0 1022.2 1027.6

1 Température minimale relevée entre 18:00 UTC la veille et 18:00 UTC le jour donné.

2 Température maximale relevée entre 06:00 UTC le jour donné et 06:00 UTC le lendemain.

3 Vent moyen de la journée basé sur les relevés horaires.

4 Ensoleillement en heures relevé entre 06:00 UTC la veille et 06:00 UTC le jour donné.

5 Précipitations totales tombées entre 06:00 UTC la jour donné et 06:00 UTC le lendemain.

Graphiques horaires